sensor_id;sensor_type;location;lat;lon;timestamp;temperature;humidity
4215;DHT22;2121;48.062;7.850;2023-03-11T00:00:12;3.70;99.90
4215;DHT22;2121;48.062;7.850;2023-03-11T00:02:42;3.70;99.90
4215;DHT22;2121;48.062;7.850;2023-03-11T00:05:23;3.70;99.90
4215;DHT22;2121;48.062;7.850;2023-03-11T00:07:50;3.70;99.90
4215;DHT22;2121;48.062;7.850;2023-03-11T00:10:23;3.70;99.90
4215;DHT22;2121;48.062;7.850;2023-03-11T00:12:50;3.70;99.90
4215;DHT22;2121;48.062;7.850;2023-03-11T00:15:16;3.70;99.90
4215;DHT22;2121;48.062;7.850;2023-03-11T00:17:42;3.70;99.90
4215;DHT22;2121;48.062;7.850;2023-03-11T00:20:16;3.80;99.90
4215;DHT22;2121;48.062;7.850;2023-03-11T00:22:43;3.80;99.90
4215;DHT22;2121;48.062;7.850;2023-03-11T00:25:10;3.80;99.90
4215;DHT22;2121;48.062;7.850;2023-03-11T00:27:36;3.80;99.90
4215;DHT22;2121;48.062;7.850;2023-03-11T00:30:03;3.90;99.90
4215;DHT22;2121;48.062;7.850;2023-03-11T00:32:29;3.80;99.90
4215;DHT22;2121;48.062;7.850;2023-03-11T00:34:55;3.80;99.90
4215;DHT22;2121;48.062;7.850;2023-03-11T00:37:20;3.80;99.90
4215;DHT22;2121;48.062;7.850;2023-03-11T00:39:46;3.70;99.90
4215;DHT22;2121;48.062;7.850;2023-03-11T00:42:12;3.80;99.90
4215;DHT22;2121;48.062;7.850;2023-03-11T00:44:37;3.70;99.90
4215;DHT22;2121;48.062;7.850;2023-03-11T00:47:03;3.60;99.90
4215;DHT22;2121;48.062;7.850;2023-03-11T00:49:29;3.60;99.90
4215;DHT22;2121;48.062;7.850;2023-03-11T00:51:55;3.60;99.90
4215;DHT22;2121;48.062;7.850;2023-03-11T00:54:20;3.60;99.90
4215;DHT22;2121;48.062;7.850;2023-03-11T00:56:46;3.60;99.90
4215;DHT22;2121;48.062;7.850;2023-03-11T00:59:12;3.60;99.90
4215;DHT22;2121;48.062;7.850;2023-03-11T01:01:37;3.50;99.90
4215;DHT22;2121;48.062;7.850;2023-03-11T01:04:03;3.60;99.90
4215;DHT22;2121;48.062;7.850;2023-03-11T01:06:29;3.40;99.90
4215;DHT22;2121;48.062;7.850;2023-03-11T01:08:55;3.40;99.90
4215;DHT22;2121;48.062;7.850;2023-03-11T01:11:20;3.40;99.90
4215;DHT22;2121;48.062;7.850;2023-03-11T01:13:46;3.50;99.90
4215;DHT22;2121;48.062;7.850;2023-03-11T01:16:12;3.50;99.90
4215;DHT22;2121;48.062;7.850;2023-03-11T01:18:37;3.60;99.90
4215;DHT22;2121;48.062;7.850;2023-03-11T01:21:03;3.60;99.90
4215;DHT22;2121;48.062;7.850;2023-03-11T01:23:29;3.60;99.90
4215;DHT22;2121;48.062;7.850;2023-03-11T01:25:57;3.60;99.90
4215;DHT22;2121;48.062;7.850;2023-03-11T01:28:23;3.60;99.90
4215;DHT22;2121;48.062;7.850;2023-03-11T01:30:49;3.60;99.90
4215;DHT22;2121;48.062;7.850;2023-03-11T01:33:17;3.60;99.90
4215;DHT22;2121;48.062;7.850;2023-03-11T01:35:43;3.60;99.90
4215;DHT22;2121;48.062;7.850;2023-03-11T01:38:09;3.50;99.90
4215;DHT22;2121;48.062;7.850;2023-03-11T01:40:42;3.50;99.90
4215;DHT22;2121;48.062;7.850;2023-03-11T01:46:25;3.50;99.90
4215;DHT22;2121;48.062;7.850;2023-03-11T01:48:58;3.50;99.90
4215;DHT22;2121;48.062;7.850;2023-03-11T01:54:04;3.30;99.90
4215;DHT22;2121;48.062;7.850;2023-03-11T01:56:32;3.30;99.90
4215;DHT22;2121;48.062;7.850;2023-03-11T01:58:59;3.30;99.90
4215;DHT22;2121;48.062;7.850;2023-03-11T02:01:24;3.30;99.90
4215;DHT22;2121;48.062;7.850;2023-03-11T02:03:50;3.30;99.90
4215;DHT22;2121;48.062;7.850;2023-03-11T02:06:20;3.20;99.90
4215;DHT22;2121;48.062;7.850;2023-03-11T02:08:47;3.20;99.90
4215;DHT22;2121;48.062;7.850;2023-03-11T02:11:23;3.10;99.90
4215;DHT22;2121;48.062;7.850;2023-03-11T02:13:53;3.00;99.90
4215;DHT22;2121;48.062;7.850;2023-03-11T02:16:20;3.00;99.90
4215;DHT22;2121;48.062;7.850;2023-03-11T02:18:46;3.00;99.90
4215;DHT22;2121;48.062;7.850;2023-03-11T02:28:59;2.90;99.90
4215;DHT22;2121;48.062;7.850;2023-03-11T02:31:27;2.90;99.90
4215;DHT22;2121;48.062;7.850;2023-03-11T02:33:54;2.90;99.90
4215;DHT22;2121;48.062;7.850;2023-03-11T02:36:42;2.90;99.90
4215;DHT22;2121;48.062;7.850;2023-03-11T02:39:08;2.90;99.90
4215;DHT22;2121;48.062;7.850;2023-03-11T02:41:38;2.90;99.90
4215;DHT22;2121;48.062;7.850;2023-03-11T02:44:07;2.90;99.90
4215;DHT22;2121;48.062;7.850;2023-03-11T02:46:36;2.80;99.90
4215;DHT22;2121;48.062;7.850;2023-03-11T02:49:03;2.70;99.90
4215;DHT22;2121;48.062;7.850;2023-03-11T02:51:29;2.60;99.90
4215;DHT22;2121;48.062;7.850;2023-03-11T02:53:58;2.60;99.90
4215;DHT22;2121;48.062;7.850;2023-03-11T02:56:26;2.60;99.90
4215;DHT22;2121;48.062;7.850;2023-03-11T02:58:53;2.60;99.90
4215;DHT22;2121;48.062;7.850;2023-03-11T03:01:19;2.60;99.90
4215;DHT22;2121;48.062;7.850;2023-03-11T03:03:45;2.60;99.90
4215;DHT22;2121;48.062;7.850;2023-03-11T03:06:11;2.70;99.90
4215;DHT22;2121;48.062;7.850;2023-03-11T03:08:37;2.60;99.90
4215;DHT22;2121;48.062;7.850;2023-03-11T03:11:03;2.50;99.90
4215;DHT22;2121;48.062;7.850;2023-03-11T03:13:28;2.40;99.90
4215;DHT22;2121;48.062;7.850;2023-03-11T03:15:55;2.40;99.90
4215;DHT22;2121;48.062;7.850;2023-03-11T03:18:21;2.40;99.90
4215;DHT22;2121;48.062;7.850;2023-03-11T03:20:46;2.40;99.90
4215;DHT22;2121;48.062;7.850;2023-03-11T03:23:12;2.30;99.90
4215;DHT22;2121;48.062;7.850;2023-03-11T03:25:41;2.30;99.90
4215;DHT22;2121;48.062;7.850;2023-03-11T03:28:08;2.30;99.90
4215;DHT22;2121;48.062;7.850;2023-03-11T03:30:34;2.30;99.90
4215;DHT22;2121;48.062;7.850;2023-03-11T03:33:00;2.30;99.90
4215;DHT22;2121;48.062;7.850;2023-03-11T03:35:26;2.30;99.90
4215;DHT22;2121;48.062;7.850;2023-03-11T03:37:51;2.30;99.90
4215;DHT22;2121;48.062;7.850;2023-03-11T03:40:17;2.40;99.90
4215;DHT22;2121;48.062;7.850;2023-03-11T03:42:43;2.40;99.90
4215;DHT22;2121;48.062;7.850;2023-03-11T03:45:09;2.40;99.90
4215;DHT22;2121;48.062;7.850;2023-03-11T03:47:35;2.40;99.90
4215;DHT22;2121;48.062;7.850;2023-03-11T03:50:03;2.30;99.90
4215;DHT22;2121;48.062;7.850;2023-03-11T03:52:30;2.30;99.90
4215;DHT22;2121;48.062;7.850;2023-03-11T03:54:56;2.30;99.90
4215;DHT22;2121;48.062;7.850;2023-03-11T03:57:21;2.30;99.90
4215;DHT22;2121;48.062;7.850;2023-03-11T03:59:47;2.30;99.90
4215;DHT22;2121;48.062;7.850;2023-03-11T04:02:13;2.30;99.90
4215;DHT22;2121;48.062;7.850;2023-03-11T04:04:39;2.20;99.90
4215;DHT22;2121;48.062;7.850;2023-03-11T04:07:05;2.20;99.90
4215;DHT22;2121;48.062;7.850;2023-03-11T04:09:32;2.10;99.90
4215;DHT22;2121;48.062;7.850;2023-03-11T04:11:58;2.10;99.90
4215;DHT22;2121;48.062;7.850;2023-03-11T04:14:24;2.10;99.90
4215;DHT22;2121;48.062;7.850;2023-03-11T04:16:50;2.00;99.90
4215;DHT22;2121;48.062;7.850;2023-03-11T04:19:16;2.00;99.90
4215;DHT22;2121;48.062;7.850;2023-03-11T04:21:42;1.90;99.90
4215;DHT22;2121;48.062;7.850;2023-03-11T04:24:08;1.90;99.90
4215;DHT22;2121;48.062;7.850;2023-03-11T04:26:33;1.90;99.90
4215;DHT22;2121;48.062;7.850;2023-03-11T04:28:59;1.90;99.90
4215;DHT22;2121;48.062;7.850;2023-03-11T04:31:25;1.80;99.90
4215;DHT22;2121;48.062;7.850;2023-03-11T04:33:51;1.80;99.90
4215;DHT22;2121;48.062;7.850;2023-03-11T04:36:17;1.80;99.90
4215;DHT22;2121;48.062;7.850;2023-03-11T04:38:43;1.90;99.90
4215;DHT22;2121;48.062;7.850;2023-03-11T04:41:10;2.00;99.90
4215;DHT22;2121;48.062;7.850;2023-03-11T04:43:35;2.00;99.90
4215;DHT22;2121;48.062;7.850;2023-03-11T04:46:01;2.00;99.90
4215;DHT22;2121;48.062;7.850;2023-03-11T04:48:27;2.00;99.90
4215;DHT22;2121;48.062;7.850;2023-03-11T04:50:53;2.00;99.90
4215;DHT22;2121;48.062;7.850;2023-03-11T04:53:20;2.00;99.90
4215;DHT22;2121;48.062;7.850;2023-03-11T04:55:46;2.10;99.90
4215;DHT22;2121;48.062;7.850;2023-03-11T04:58:12;2.00;99.90
4215;DHT22;2121;48.062;7.850;2023-03-11T05:00:38;2.00;99.90
4215;DHT22;2121;48.062;7.850;2023-03-11T05:03:05;2.00;99.90
4215;DHT22;2121;48.062;7.850;2023-03-11T05:05:31;2.00;99.90
4215;DHT22;2121;48.062;7.850;2023-03-11T05:07:57;2.00;99.90
4215;DHT22;2121;48.062;7.850;2023-03-11T05:10:22;1.90;99.90
4215;DHT22;2121;48.062;7.850;2023-03-11T05:12:48;1.90;99.90
4215;DHT22;2121;48.062;7.850;2023-03-11T05:15:14;2.00;99.90
4215;DHT22;2121;48.062;7.850;2023-03-11T05:17:40;2.00;99.90
4215;DHT22;2121;48.062;7.850;2023-03-11T05:20:07;2.10;99.90
4215;DHT22;2121;48.062;7.850;2023-03-11T05:22:33;2.10;99.90
4215;DHT22;2121;48.062;7.850;2023-03-11T05:24:59;2.00;99.90
4215;DHT22;2121;48.062;7.850;2023-03-11T05:27:25;2.00;99.90
4215;DHT22;2121;48.062;7.850;2023-03-11T05:29:50;1.90;99.90
4215;DHT22;2121;48.062;7.850;2023-03-11T05:32:16;1.90;99.90
4215;DHT22;2121;48.062;7.850;2023-03-11T05:34:44;1.90;99.90
4215;DHT22;2121;48.062;7.850;2023-03-11T05:37:10;1.90;99.90
4215;DHT22;2121;48.062;7.850;2023-03-11T05:39:36;1.90;99.90
4215;DHT22;2121;48.062;7.850;2023-03-11T05:42:06;1.90;99.90
4215;DHT22;2121;48.062;7.850;2023-03-11T05:44:32;2.00;99.90
4215;DHT22;2121;48.062;7.850;2023-03-11T05:46:59;2.00;99.90
4215;DHT22;2121;48.062;7.850;2023-03-11T05:49:25;1.90;99.90
4215;DHT22;2121;48.062;7.850;2023-03-11T05:51:51;1.90;99.90
4215;DHT22;2121;48.062;7.850;2023-03-11T05:54:18;1.90;99.90
4215;DHT22;2121;48.062;7.850;2023-03-11T05:56:45;1.80;99.90
4215;DHT22;2121;48.062;7.850;2023-03-11T05:59:13;1.70;99.90
4215;DHT22;2121;48.062;7.850;2023-03-11T06:01:40;1.60;99.90
4215;DHT22;2121;48.062;7.850;2023-03-11T06:04:07;1.50;99.90
4215;DHT22;2121;48.062;7.850;2023-03-11T06:06:33;1.40;99.90
4215;DHT22;2121;48.062;7.850;2023-03-11T06:08:59;1.30;99.90
4215;DHT22;2121;48.062;7.850;2023-03-11T06:11:26;1.30;99.90
4215;DHT22;2121;48.062;7.850;2023-03-11T06:13:56;1.20;99.90
4215;DHT22;2121;48.062;7.850;2023-03-11T06:16:23;1.30;99.90
4215;DHT22;2121;48.062;7.850;2023-03-11T06:18:50;1.30;99.90
4215;DHT22;2121;48.062;7.850;2023-03-11T06:21:19;1.30;99.90
4215;DHT22;2121;48.062;7.850;2023-03-11T06:23:46;1.30;99.90
4215;DHT22;2121;48.062;7.850;2023-03-11T06:26:14;1.30;99.90
4215;DHT22;2121;48.062;7.850;2023-03-11T06:28:43;1.30;99.90
4215;DHT22;2121;48.062;7.850;2023-03-11T06:31:13;1.30;99.90
4215;DHT22;2121;48.062;7.850;2023-03-11T06:33:41;1.50;99.90
4215;DHT22;2121;48.062;7.850;2023-03-11T06:36:07;1.60;99.90
4215;DHT22;2121;48.062;7.850;2023-03-11T06:38:33;1.60;99.90
4215;DHT22;2121;48.062;7.850;2023-03-11T06:41:00;1.70;99.90
4215;DHT22;2121;48.062;7.850;2023-03-11T06:43:28;1.80;99.90
4215;DHT22;2121;48.062;7.850;2023-03-11T06:45:56;1.90;99.90
4215;DHT22;2121;48.062;7.850;2023-03-11T06:48:23;1.80;99.90
4215;DHT22;2121;48.062;7.850;2023-03-11T06:50:59;1.80;99.90
4215;DHT22;2121;48.062;7.850;2023-03-11T06:53:28;1.80;99.90
4215;DHT22;2121;48.062;7.850;2023-03-11T06:58:30;2.00;99.90
4215;DHT22;2121;48.062;7.850;2023-03-11T07:01:01;2.20;99.90
4215;DHT22;2121;48.062;7.850;2023-03-11T07:03:30;2.20;99.90
4215;DHT22;2121;48.062;7.850;2023-03-11T07:05:56;2.30;99.90
4215;DHT22;2121;48.062;7.850;2023-03-11T07:08:23;2.40;99.90
4215;DHT22;2121;48.062;7.850;2023-03-11T07:13:34;2.40;99.90
4215;DHT22;2121;48.062;7.850;2023-03-11T07:18:32;2.30;99.90
4215;DHT22;2121;48.062;7.850;2023-03-11T07:21:00;2.20;99.90
4215;DHT22;2121;48.062;7.850;2023-03-11T07:23:27;2.20;99.90
4215;DHT22;2121;48.062;7.850;2023-03-11T07:25:53;2.30;99.90
4215;DHT22;2121;48.062;7.850;2023-03-11T07:28:21;2.30;99.90
4215;DHT22;2121;48.062;7.850;2023-03-11T07:30:51;2.40;99.90
4215;DHT22;2121;48.062;7.850;2023-03-11T07:33:18;2.40;99.90
4215;DHT22;2121;48.062;7.850;2023-03-11T07:35:44;2.40;99.90
4215;DHT22;2121;48.062;7.850;2023-03-11T07:38:11;2.50;99.90
4215;DHT22;2121;48.062;7.850;2023-03-11T07:40:37;2.70;99.90
4215;DHT22;2121;48.062;7.850;2023-03-11T07:43:02;2.70;99.90
4215;DHT22;2121;48.062;7.850;2023-03-11T07:45:28;2.60;99.90
4215;DHT22;2121;48.062;7.850;2023-03-11T07:47:54;2.60;99.90
4215;DHT22;2121;48.062;7.850;2023-03-11T07:50:20;2.60;99.90
4215;DHT22;2121;48.062;7.850;2023-03-11T07:52:47;2.70;99.90
4215;DHT22;2121;48.062;7.850;2023-03-11T07:55:13;2.80;99.90
4215;DHT22;2121;48.062;7.850;2023-03-11T07:57:39;3.00;99.90
4215;DHT22;2121;48.062;7.850;2023-03-11T08:00:06;2.90;99.20
4215;DHT22;2121;48.062;7.850;2023-03-11T08:02:32;2.90;99.80
4215;DHT22;2121;48.062;7.850;2023-03-11T08:04:58;3.20;99.90
4215;DHT22;2121;48.062;7.850;2023-03-11T08:07:23;3.10;99.30
4215;DHT22;2121;48.062;7.850;2023-03-11T08:09:49;3.00;99.40
4215;DHT22;2121;48.062;7.850;2023-03-11T08:12:15;3.00;99.60
4215;DHT22;2121;48.062;7.850;2023-03-11T08:14:41;3.40;99.90
4215;DHT22;2121;48.062;7.850;2023-03-11T08:17:08;3.50;99.30
4215;DHT22;2121;48.062;7.850;2023-03-11T08:19:35;3.40;99.10
4215;DHT22;2121;48.062;7.850;2023-03-11T08:22:03;3.20;99.00
4215;DHT22;2121;48.062;7.850;2023-03-11T08:24:29;3.40;99.60
4215;DHT22;2121;48.062;7.850;2023-03-11T08:26:55;3.70;98.60
4215;DHT22;2121;48.062;7.850;2023-03-11T08:29:22;3.80;98.30
4215;DHT22;2121;48.062;7.850;2023-03-11T08:31:48;3.40;97.90
4215;DHT22;2121;48.062;7.850;2023-03-11T08:34:14;3.10;97.80
4215;DHT22;2121;48.062;7.850;2023-03-11T08:36:40;3.00;98.40
4215;DHT22;2121;48.062;7.850;2023-03-11T08:39:06;2.80;98.30
4215;DHT22;2121;48.062;7.850;2023-03-11T08:41:32;2.60;98.40
4215;DHT22;2121;48.062;7.850;2023-03-11T08:43:58;2.60;98.50
4215;DHT22;2121;48.062;7.850;2023-03-11T08:46:37;2.60;98.20
4215;DHT22;2121;48.062;7.850;2023-03-11T08:49:04;2.70;98.40
4215;DHT22;2121;48.062;7.850;2023-03-11T08:51:32;2.70;98.10
4215;DHT22;2121;48.062;7.850;2023-03-11T08:53:58;2.80;98.00
4215;DHT22;2121;48.062;7.850;2023-03-11T08:56:25;2.80;97.70
4215;DHT22;2121;48.062;7.850;2023-03-11T08:58:51;2.90;97.30
4215;DHT22;2121;48.062;7.850;2023-03-11T09:01:17;3.00;96.50
4215;DHT22;2121;48.062;7.850;2023-03-11T09:03:44;3.10;96.80
4215;DHT22;2121;48.062;7.850;2023-03-11T09:06:12;3.10;96.70
4215;DHT22;2121;48.062;7.850;2023-03-11T09:08:40;3.30;96.50
4215;DHT22;2121;48.062;7.850;2023-03-11T09:11:07;3.50;96.80
4215;DHT22;2121;48.062;7.850;2023-03-11T09:13:33;4.00;96.90
4215;DHT22;2121;48.062;7.850;2023-03-11T09:15:59;4.50;95.60
4215;DHT22;2121;48.062;7.850;2023-03-11T09:18:25;4.90;94.60
4215;DHT22;2121;48.062;7.850;2023-03-11T09:20:52;5.30;93.30
4215;DHT22;2121;48.062;7.850;2023-03-11T09:23:22;5.60;92.50
4215;DHT22;2121;48.062;7.850;2023-03-11T09:25:48;5.80;92.40
4215;DHT22;2121;48.062;7.850;2023-03-11T09:28:14;5.90;91.70
4215;DHT22;2121;48.062;7.850;2023-03-11T09:30:40;5.60;90.50
4215;DHT22;2121;48.062;7.850;2023-03-11T09:33:05;5.70;91.60
4215;DHT22;2121;48.062;7.850;2023-03-11T09:35:32;6.00;91.80
4215;DHT22;2121;48.062;7.850;2023-03-11T09:37:57;6.30;91.40
4215;DHT22;2121;48.062;7.850;2023-03-11T09:40:25;6.50;90.10
4215;DHT22;2121;48.062;7.850;2023-03-11T09:43:05;6.70;89.30
4215;DHT22;2121;48.062;7.850;2023-03-11T09:45:50;6.00;86.90
4215;DHT22;2121;48.062;7.850;2023-03-11T09:48:35;6.10;88.30
4215;DHT22;2121;48.062;7.850;2023-03-11T09:51:16;6.20;87.10
4215;DHT22;2121;48.062;7.850;2023-03-11T09:53:54;6.00;85.40
4215;DHT22;2121;48.062;7.850;2023-03-11T09:56:24;5.50;82.00
4215;DHT22;2121;48.062;7.850;2023-03-11T09:58:53;5.50;83.40
4215;DHT22;2121;48.062;7.850;2023-03-11T10:01:27;5.20;82.10
4215;DHT22;2121;48.062;7.850;2023-03-11T10:04:38;4.80;82.10
4215;DHT22;2121;48.062;7.850;2023-03-11T10:07:14;4.80;83.40
4215;DHT22;2121;48.062;7.850;2023-03-11T10:09:57;4.90;81.00
4215;DHT22;2121;48.062;7.850;2023-03-11T10:12:55;4.90;82.10
4215;DHT22;2121;48.062;7.850;2023-03-11T10:18:40;5.40;81.80
4215;DHT22;2121;48.062;7.850;2023-03-11T10:24:37;6.20;83.60
4215;DHT22;2121;48.062;7.850;2023-03-11T10:27:41;5.90;83.50
4215;DHT22;2121;48.062;7.850;2023-03-11T10:35:52;6.00;84.50
4215;DHT22;2121;48.062;7.850;2023-03-11T10:38:27;5.70;82.10
4215;DHT22;2121;48.062;7.850;2023-03-11T10:41:00;6.00;82.40
4215;DHT22;2121;48.062;7.850;2023-03-11T10:43:34;6.20;85.20
4215;DHT22;2121;48.062;7.850;2023-03-11T10:46:19;6.80;85.20
4215;DHT22;2121;48.062;7.850;2023-03-11T10:48:50;7.00;82.50
4215;DHT22;2121;48.062;7.850;2023-03-11T10:51:21;6.60;82.20
4215;DHT22;2121;48.062;7.850;2023-03-11T10:53:59;6.20;83.10
4215;DHT22;2121;48.062;7.850;2023-03-11T10:56:35;6.20;82.60
4215;DHT22;2121;48.062;7.850;2023-03-11T10:59:04;6.30;83.50
4215;DHT22;2121;48.062;7.850;2023-03-11T11:01:54;6.60;83.70
4215;DHT22;2121;48.062;7.850;2023-03-11T11:04:35;6.30;82.10
4215;DHT22;2121;48.062;7.850;2023-03-11T11:07:31;6.30;81.70
4215;DHT22;2121;48.062;7.850;2023-03-11T11:18:51;6.50;80.70
4215;DHT22;2121;48.062;7.850;2023-03-11T11:21:41;6.50;80.10
4215;DHT22;2121;48.062;7.850;2023-03-11T11:24:17;6.50;80.90
4215;DHT22;2121;48.062;7.850;2023-03-11T11:27:21;6.70;80.90
4215;DHT22;2121;48.062;7.850;2023-03-11T11:30:12;7.10;81.30
4215;DHT22;2121;48.062;7.850;2023-03-11T11:32:40;8.10;82.20
4215;DHT22;2121;48.062;7.850;2023-03-11T11:35:14;9.10;79.20
4215;DHT22;2121;48.062;7.850;2023-03-11T11:37:45;9.00;75.40
4215;DHT22;2121;48.062;7.850;2023-03-11T11:45:28;8.30;78.50
4215;DHT22;2121;48.062;7.850;2023-03-11T11:47:59;8.40;77.70
4215;DHT22;2121;48.062;7.850;2023-03-11T11:50:42;8.80;75.40
4215;DHT22;2121;48.062;7.850;2023-03-11T11:53:30;9.20;75.90
4215;DHT22;2121;48.062;7.850;2023-03-11T11:56:00;9.00;75.70
4215;DHT22;2121;48.062;7.850;2023-03-11T11:58:27;8.70;75.60
4215;DHT22;2121;48.062;7.850;2023-03-11T12:04:02;8.40;76.90
4215;DHT22;2121;48.062;7.850;2023-03-11T12:12:52;8.20;73.40
4215;DHT22;2121;48.062;7.850;2023-03-11T12:15:41;7.70;74.00
4215;DHT22;2121;48.062;7.850;2023-03-11T12:18:21;7.60;74.20
4215;DHT22;2121;48.062;7.850;2023-03-11T12:20:53;7.50;75.00
4215;DHT22;2121;48.062;7.850;2023-03-11T12:26:17;8.20;70.90
4215;DHT22;2121;48.062;7.850;2023-03-11T12:29:03;8.50;71.90
4215;DHT22;2121;48.062;7.850;2023-03-11T12:31:43;8.70;70.20
4215;DHT22;2121;48.062;7.850;2023-03-11T12:34:12;8.90;70.90
4215;DHT22;2121;48.062;7.850;2023-03-11T12:36:41;7.50;71.70
4215;DHT22;2121;48.062;7.850;2023-03-11T12:39:31;7.10;73.30
4215;DHT22;2121;48.062;7.850;2023-03-11T12:44:40;7.90;74.40
4215;DHT22;2121;48.062;7.850;2023-03-11T12:49:40;8.20;70.50
4215;DHT22;2121;48.062;7.850;2023-03-11T13:03:11;7.90;72.00
4215;DHT22;2121;48.062;7.850;2023-03-11T13:09:12;7.60;69.60
4215;DHT22;2121;48.062;7.850;2023-03-11T13:11:47;7.50;71.10
4215;DHT22;2121;48.062;7.850;2023-03-11T13:14:26;8.00;70.30
4215;DHT22;2121;48.062;7.850;2023-03-11T13:16:53;8.40;67.50
4215;DHT22;2121;48.062;7.850;2023-03-11T13:21:51;9.10;66.20
4215;DHT22;2121;48.062;7.850;2023-03-11T13:29:36;9.70;67.60
4215;DHT22;2121;48.062;7.850;2023-03-11T13:32:24;8.90;67.10
4215;DHT22;2121;48.062;7.850;2023-03-11T13:34:57;8.50;68.60
4215;DHT22;2121;48.062;7.850;2023-03-11T13:40:40;9.80;65.80
4215;DHT22;2121;48.062;7.850;2023-03-11T13:43:14;10.30;65.70
4215;DHT22;2121;48.062;7.850;2023-03-11T13:48:43;10.70;66.10
4215;DHT22;2121;48.062;7.850;2023-03-11T13:51:28;10.50;67.60
4215;DHT22;2121;48.062;7.850;2023-03-11T13:56:51;10.20;64.60
4215;DHT22;2121;48.062;7.850;2023-03-11T13:59:27;10.10;64.50
4215;DHT22;2121;48.062;7.850;2023-03-11T14:02:15;10.10;63.80
4215;DHT22;2121;48.062;7.850;2023-03-11T14:04:55;10.20;65.60
4215;DHT22;2121;48.062;7.850;2023-03-11T14:07:26;10.40;64.70
4215;DHT22;2121;48.062;7.850;2023-03-11T14:12:49;9.00;64.50
4215;DHT22;2121;48.062;7.850;2023-03-11T14:15:23;9.00;67.20
4215;DHT22;2121;48.062;7.850;2023-03-11T14:17:52;10.30;65.50
4215;DHT22;2121;48.062;7.850;2023-03-11T14:20:21;11.60;63.40
4215;DHT22;2121;48.062;7.850;2023-03-11T14:22:51;11.30;61.20
4215;DHT22;2121;48.062;7.850;2023-03-11T14:25:23;10.90;61.80
4215;DHT22;2121;48.062;7.850;2023-03-11T14:30:26;11.80;61.50
4215;DHT22;2121;48.062;7.850;2023-03-11T14:33:19;10.60;65.10
4215;DHT22;2121;48.062;7.850;2023-03-11T14:35:55;10.00;65.50
4215;DHT22;2121;48.062;7.850;2023-03-11T14:38:28;10.30;68.50
4215;DHT22;2121;48.062;7.850;2023-03-11T14:41:05;10.50;66.10
4215;DHT22;2121;48.062;7.850;2023-03-11T14:43:38;10.50;67.60
4215;DHT22;2121;48.062;7.850;2023-03-11T14:46:06;10.50;66.60
4215;DHT22;2121;48.062;7.850;2023-03-11T14:48:41;10.70;66.20
4215;DHT22;2121;48.062;7.850;2023-03-11T14:51:23;10.60;66.50
4215;DHT22;2121;48.062;7.850;2023-03-11T14:54:05;10.50;65.00
4215;DHT22;2121;48.062;7.850;2023-03-11T14:56:36;10.40;65.90
4215;DHT22;2121;48.062;7.850;2023-03-11T14:59:13;10.20;64.10
4215;DHT22;2121;48.062;7.850;2023-03-11T15:01:47;10.00;63.30
4215;DHT22;2121;48.062;7.850;2023-03-11T15:04:30;9.70;65.20
4215;DHT22;2121;48.062;7.850;2023-03-11T15:06:58;9.60;65.70
4215;DHT22;2121;48.062;7.850;2023-03-11T15:09:25;9.70;64.50
4215;DHT22;2121;48.062;7.850;2023-03-11T15:11:57;9.20;66.90
4215;DHT22;2121;48.062;7.850;2023-03-11T15:14:33;8.90;69.20
4215;DHT22;2121;48.062;7.850;2023-03-11T15:17:23;9.20;69.30
4215;DHT22;2121;48.062;7.850;2023-03-11T15:19:51;9.20;70.30
4215;DHT22;2121;48.062;7.850;2023-03-11T15:22:22;8.80;69.50
4215;DHT22;2121;48.062;7.850;2023-03-11T15:24:58;8.90;72.10
4215;DHT22;2121;48.062;7.850;2023-03-11T15:27:36;8.70;72.00
4215;DHT22;2121;48.062;7.850;2023-03-11T15:30:24;8.50;71.90
4215;DHT22;2121;48.062;7.850;2023-03-11T15:32:54;8.30;71.90
4215;DHT22;2121;48.062;7.850;2023-03-11T15:35:28;8.20;70.70
4215;DHT22;2121;48.062;7.850;2023-03-11T15:38:22;8.10;71.10
4215;DHT22;2121;48.062;7.850;2023-03-11T15:40:55;8.20;71.10
4215;DHT22;2121;48.062;7.850;2023-03-11T15:43:33;8.10;71.50
4215;DHT22;2121;48.062;7.850;2023-03-11T15:46:10;7.80;73.20
4215;DHT22;2121;48.062;7.850;2023-03-11T15:48:35;8.00;73.40
4215;DHT22;2121;48.062;7.850;2023-03-11T15:51:01;8.00;73.40
4215;DHT22;2121;48.062;7.850;2023-03-11T15:53:28;7.80;73.40
4215;DHT22;2121;48.062;7.850;2023-03-11T15:56:01;7.70;73.00
4215;DHT22;2121;48.062;7.850;2023-03-11T15:58:29;7.70;72.80
4215;DHT22;2121;48.062;7.850;2023-03-11T16:00:56;7.60;73.70
4215;DHT22;2121;48.062;7.850;2023-03-11T16:03:22;7.50;73.30
4215;DHT22;2121;48.062;7.850;2023-03-11T16:05:49;7.30;73.40
4215;DHT22;2121;48.062;7.850;2023-03-11T16:08:15;7.00;73.80
4215;DHT22;2121;48.062;7.850;2023-03-11T16:10:41;7.10;75.00
4215;DHT22;2121;48.062;7.850;2023-03-11T16:13:14;7.10;75.60
4215;DHT22;2121;48.062;7.850;2023-03-11T16:15:41;7.10;74.90
4215;DHT22;2121;48.062;7.850;2023-03-11T16:18:08;7.10;74.20
4215;DHT22;2121;48.062;7.850;2023-03-11T16:20:51;7.10;74.70
4215;DHT22;2121;48.062;7.850;2023-03-11T16:23:25;6.90;75.00
4215;DHT22;2121;48.062;7.850;2023-03-11T16:25:59;6.80;75.30
4215;DHT22;2121;48.062;7.850;2023-03-11T16:28:27;6.90;75.00
4215;DHT22;2121;48.062;7.850;2023-03-11T16:30:52;7.00;75.20
4215;DHT22;2121;48.062;7.850;2023-03-11T16:33:18;7.10;75.20
4215;DHT22;2121;48.062;7.850;2023-03-11T16:35:44;7.10;75.70
4215;DHT22;2121;48.062;7.850;2023-03-11T16:38:10;7.20;76.40
4215;DHT22;2121;48.062;7.850;2023-03-11T16:40:36;7.10;75.50
4215;DHT22;2121;48.062;7.850;2023-03-11T16:43:07;6.90;76.40
4215;DHT22;2121;48.062;7.850;2023-03-11T16:45:34;6.90;76.20
4215;DHT22;2121;48.062;7.850;2023-03-11T16:48:00;6.90;76.10
4215;DHT22;2121;48.062;7.850;2023-03-11T16:50:26;6.90;76.00
4215;DHT22;2121;48.062;7.850;2023-03-11T16:52:53;6.90;75.70
4215;DHT22;2121;48.062;7.850;2023-03-11T16:55:20;6.90;76.70
4215;DHT22;2121;48.062;7.850;2023-03-11T16:57:46;6.90;76.80
4215;DHT22;2121;48.062;7.850;2023-03-11T17:00:13;6.80;75.90
4215;DHT22;2121;48.062;7.850;2023-03-11T17:02:39;6.70;76.90
4215;DHT22;2121;48.062;7.850;2023-03-11T17:05:06;6.80;79.90
4215;DHT22;2121;48.062;7.850;2023-03-11T17:07:32;6.90;77.60
4215;DHT22;2121;48.062;7.850;2023-03-11T17:09:59;7.00;77.50
4215;DHT22;2121;48.062;7.850;2023-03-11T17:12:26;7.10;76.40
4215;DHT22;2121;48.062;7.850;2023-03-11T17:14:53;7.20;75.50
4215;DHT22;2121;48.062;7.850;2023-03-11T17:17:20;7.10;76.40
4215;DHT22;2121;48.062;7.850;2023-03-11T17:19:47;7.00;75.80
4215;DHT22;2121;48.062;7.850;2023-03-11T17:22:13;6.80;76.20
4215;DHT22;2121;48.062;7.850;2023-03-11T17:24:39;6.70;76.30
4215;DHT22;2121;48.062;7.850;2023-03-11T17:27:05;6.70;77.40
4215;DHT22;2121;48.062;7.850;2023-03-11T17:29:32;6.70;77.90
4215;DHT22;2121;48.062;7.850;2023-03-11T17:31:58;6.70;78.10
4215;DHT22;2121;48.062;7.850;2023-03-11T17:34:25;6.70;78.10
4215;DHT22;2121;48.062;7.850;2023-03-11T17:36:51;6.80;77.60
4215;DHT22;2121;48.062;7.850;2023-03-11T17:39:17;6.70;76.90
4215;DHT22;2121;48.062;7.850;2023-03-11T17:41:44;6.60;78.20
4215;DHT22;2121;48.062;7.850;2023-03-11T17:44:10;6.40;77.10
4215;DHT22;2121;48.062;7.850;2023-03-11T17:46:37;6.40;77.90
4215;DHT22;2121;48.062;7.850;2023-03-11T17:49:05;6.20;78.40
4215;DHT22;2121;48.062;7.850;2023-03-11T17:51:31;6.10;78.40
4215;DHT22;2121;48.062;7.850;2023-03-11T17:53:57;6.00;78.60
4215;DHT22;2121;48.062;7.850;2023-03-11T17:56:24;6.00;80.30
4215;DHT22;2121;48.062;7.850;2023-03-11T17:58:50;5.90;80.50
4215;DHT22;2121;48.062;7.850;2023-03-11T18:01:19;5.80;79.60
4215;DHT22;2121;48.062;7.850;2023-03-11T18:03:48;5.80;81.40
4215;DHT22;2121;48.062;7.850;2023-03-11T18:06:16;5.60;81.30
4215;DHT22;2121;48.062;7.850;2023-03-11T18:08:42;5.60;81.10
4215;DHT22;2121;48.062;7.850;2023-03-11T18:11:10;5.50;81.40
4215;DHT22;2121;48.062;7.850;2023-03-11T18:13:38;5.40;81.90